sensor_id;sensor_type;location;lat;lon;timestamp;P1;durP1;ratioP1;P2;durP2;ratioP2
33902;SDS011;20194;50.950;5.346;2023-05-29T00:00:35;10.10;;;4.93;;
33902;SDS011;20194;50.950;5.346;2023-05-29T00:03:01;12.52;;;5.30;;
33902;SDS011;20194;50.950;5.346;2023-05-29T00:05:27;14.50;;;5.13;;
33902;SDS011;20194;50.950;5.346;2023-05-29T00:07:52;15.20;;;5.00;;
33902;SDS011;20194;50.950;5.346;2023-05-29T00:10:18;10.55;;;5.15;;
33902;SDS011;20194;50.950;5.346;2023-05-29T00:12:44;15.95;;;4.85;;
33902;SDS011;20194;50.950;5.346;2023-05-29T00:15:09;11.05;;;5.03;;
33902;SDS011;20194;50.950;5.346;2023-05-29T00:17:36;14.60;;;5.63;;
33902;SDS011;20194;50.950;5.346;2023-05-29T00:20:02;12.50;;;5.22;;
33902;SDS011;20194;50.950;5.346;2023-05-29T00:22:34;12.57;;;5.50;;
33902;SDS011;20194;50.950;5.346;2023-05-29T00:25:03;9.35;;;4.13;;
33902;SDS011;20194;50.950;5.346;2023-05-29T00:27:32;10.10;;;4.80;;
33902;SDS011;20194;50.950;5.346;2023-05-29T00:29:58;9.63;;;5.22;;
33902;SDS011;20194;50.950;5.346;2023-05-29T00:32:25;9.82;;;4.75;;
33902;SDS011;20194;50.950;5.346;2023-05-29T00:34:52;12.35;;;4.57;;
33902;SDS011;20194;50.950;5.346;2023-05-29T00:37:19;12.32;;;5.65;;
33902;SDS011;20194;50.950;5.346;2023-05-29T00:39:48;14.77;;;5.38;;
33902;SDS011;20194;50.950;5.346;2023-05-29T00:42:14;11.63;;;5.50;;
33902;SDS011;20194;50.950;5.346;2023-05-29T00:44:40;12.68;;;5.97;;
33902;SDS011;20194;50.950;5.346;2023-05-29T00:47:05;10.85;;;5.22;;
33902;SDS011;20194;50.950;5.346;2023-05-29T00:49:32;8.30;;;5.20;;
33902;SDS011;20194;50.950;5.346;2023-05-29T00:52:00;11.85;;;4.95;;
33902;SDS011;20194;50.950;5.346;2023-05-29T00:54:27;10.20;;;4.95;;
33902;SDS011;20194;50.950;5.346;2023-05-29T00:56:55;10.90;;;5.32;;
33902;SDS011;20194;50.950;5.346;2023-05-29T00:59:22;18.75;;;6.45;;
33902;SDS011;20194;50.950;5.346;2023-05-29T01:01:48;11.68;;;5.40;;
33902;SDS011;20194;50.950;5.346;2023-05-29T01:04:15;11.40;;;5.45;;
33902;SDS011;20194;50.950;5.346;2023-05-29T01:06:42;17.50;;;6.15;;
33902;SDS011;20194;50.950;5.346;2023-05-29T01:09:09;14.95;;;6.55;;
33902;SDS011;20194;50.950;5.346;2023-05-29T01:14:29;14.27;;;5.63;;
33902;SDS011;20194;50.950;5.346;2023-05-29T01:20:29;13.13;;;5.60;;
33902;SDS011;20194;50.950;5.346;2023-05-29T01:28:14;14.63;;;5.60;;
33902;SDS011;20194;50.950;5.346;2023-05-29T01:30:43;10.57;;;5.10;;
33902;SDS011;20194;50.950;5.346;2023-05-29T01:33:09;19.52;;;6.18;;
33902;SDS011;20194;50.950;5.346;2023-05-29T01:35:35;14.52;;;5.65;;
33902;SDS011;20194;50.950;5.346;2023-05-29T01:38:01;15.65;;;6.45;;
33902;SDS011;20194;50.950;5.346;2023-05-29T01:40:27;17.52;;;6.80;;
33902;SDS011;20194;50.950;5.346;2023-05-29T01:42:53;9.77;;;5.28;;
33902;SDS011;20194;50.950;5.346;2023-05-29T01:45:19;15.23;;;6.18;;
33902;SDS011;20194;50.950;5.346;2023-05-29T01:47:45;24.08;;;5.97;;
33902;SDS011;20194;50.950;5.346;2023-05-29T01:50:13;17.55;;;6.22;;
33902;SDS011;20194;50.950;5.346;2023-05-29T01:52:41;16.83;;;6.30;;
33902;SDS011;20194;50.950;5.346;2023-05-29T01:55:08;17.73;;;6.75;;
33902;SDS011;20194;50.950;5.346;2023-05-29T01:57:34;13.93;;;6.47;;
33902;SDS011;20194;50.950;5.346;2023-05-29T02:00:01;18.70;;;7.70;;
33902;SDS011;20194;50.950;5.346;2023-05-29T02:02:37;16.55;;;5.72;;
33902;SDS011;20194;50.950;5.346;2023-05-29T02:05:05;22.42;;;7.38;;
33902;SDS011;20194;50.950;5.346;2023-05-29T02:07:32;11.85;;;5.25;;
33902;SDS011;20194;50.950;5.346;2023-05-29T02:09:59;14.82;;;6.25;;
33902;SDS011;20194;50.950;5.346;2023-05-29T02:12:25;18.65;;;7.15;;
33902;SDS011;20194;50.950;5.346;2023-05-29T02:14:50;18.45;;;6.53;;
33902;SDS011;20194;50.950;5.346;2023-05-29T02:17:16;12.65;;;6.63;;
33902;SDS011;20194;50.950;5.346;2023-05-29T02:19:44;15.50;;;6.05;;
33902;SDS011;20194;50.950;5.346;2023-05-29T02:22:09;18.88;;;5.90;;
33902;SDS011;20194;50.950;5.346;2023-05-29T02:24:35;18.33;;;6.25;;
33902;SDS011;20194;50.950;5.346;2023-05-29T02:27:01;18.35;;;6.38;;
33902;SDS011;20194;50.950;5.346;2023-05-29T02:29:28;18.42;;;6.55;;
33902;SDS011;20194;50.950;5.346;2023-05-29T02:31:53;18.67;;;5.72;;
33902;SDS011;20194;50.950;5.346;2023-05-29T02:34:19;13.52;;;6.18;;
33902;SDS011;20194;50.950;5.346;2023-05-29T02:36:47;18.60;;;6.40;;
33902;SDS011;20194;50.950;5.346;2023-05-29T02:39:14;14.85;;;5.78;;
33902;SDS011;20194;50.950;5.346;2023-05-29T02:41:39;15.35;;;5.50;;
33902;SDS011;20194;50.950;5.346;2023-05-29T02:44:05;11.32;;;4.78;;
33902;SDS011;20194;50.950;5.346;2023-05-29T02:46:31;18.63;;;5.13;;
33902;SDS011;20194;50.950;5.346;2023-05-29T02:48:56;15.05;;;4.78;;
33902;SDS011;20194;50.950;5.346;2023-05-29T02:51:22;15.63;;;4.78;;
33902;SDS011;20194;50.950;5.346;2023-05-29T02:53:48;11.18;;;4.45;;
33902;SDS011;20194;50.950;5.346;2023-05-29T02:56:13;17.58;;;4.97;;
33902;SDS011;20194;50.950;5.346;2023-05-29T02:58:40;14.02;;;4.40;;
33902;SDS011;20194;50.950;5.346;2023-05-29T03:01:06;19.33;;;4.93;;
33902;SDS011;20194;50.950;5.346;2023-05-29T03:03:32;16.75;;;4.53;;
33902;SDS011;20194;50.950;5.346;2023-05-29T03:05:58;18.55;;;4.68;;
33902;SDS011;20194;50.950;5.346;2023-05-29T03:08:25;18.33;;;4.78;;
33902;SDS011;20194;50.950;5.346;2023-05-29T03:10:53;14.80;;;4.07;;
33902;SDS011;20194;50.950;5.346;2023-05-29T03:13:19;15.23;;;4.55;;
33902;SDS011;20194;50.950;5.346;2023-05-29T03:15:45;11.80;;;4.45;;
33902;SDS011;20194;50.950;5.346;2023-05-29T03:18:12;12.82;;;3.70;;
33902;SDS011;20194;50.950;5.346;2023-05-29T03:20:37;16.75;;;4.15;;
33902;SDS011;20194;50.950;5.346;2023-05-29T03:23:03;18.45;;;4.05;;
33902;SDS011;20194;50.950;5.346;2023-05-29T03:25:29;18.25;;;4.53;;
33902;SDS011;20194;50.950;5.346;2023-05-29T03:27:55;13.13;;;3.92;;
33902;SDS011;20194;50.950;5.346;2023-05-29T03:30:21;15.88;;;4.25;;
33902;SDS011;20194;50.950;5.346;2023-05-29T03:32:46;18.65;;;4.88;;
33902;SDS011;20194;50.950;5.346;2023-05-29T03:35:12;19.20;;;4.00;;
33902;SDS011;20194;50.950;5.346;2023-05-29T03:37:38;16.63;;;4.00;;
33902;SDS011;20194;50.950;5.346;2023-05-29T03:40:04;12.30;;;3.80;;
33902;SDS011;20194;50.950;5.346;2023-05-29T03:42:30;12.93;;;3.78;;
33902;SDS011;20194;50.950;5.346;2023-05-29T03:44:56;21.48;;;3.67;;
33902;SDS011;20194;50.950;5.346;2023-05-29T03:47:22;12.73;;;3.90;;
33902;SDS011;20194;50.950;5.346;2023-05-29T03:49:48;17.90;;;3.92;;
33902;SDS011;20194;50.950;5.346;2023-05-29T03:52:13;12.57;;;3.45;;
33902;SDS011;20194;50.950;5.346;2023-05-29T03:54:39;16.38;;;3.50;;
33902;SDS011;20194;50.950;5.346;2023-05-29T03:57:05;20.88;;;3.80;;
33902;SDS011;20194;50.950;5.346;2023-05-29T03:59:31;12.38;;;3.05;;
33902;SDS011;20194;50.950;5.346;2023-05-29T04:01:58;17.98;;;3.72;;
33902;SDS011;20194;50.950;5.346;2023-05-29T04:04:23;12.10;;;3.22;;
33902;SDS011;20194;50.950;5.346;2023-05-29T04:06:49;12.90;;;3.08;;
33902;SDS011;20194;50.950;5.346;2023-05-29T04:09:15;12.65;;;3.08;;
33902;SDS011;20194;50.950;5.346;2023-05-29T04:11:40;19.40;;;3.28;;
33902;SDS011;20194;50.950;5.346;2023-05-29T04:14:09;16.75;;;3.67;;
33902;SDS011;20194;50.950;5.346;2023-05-29T04:16:35;22.27;;;4.20;;
33902;SDS011;20194;50.950;5.346;2023-05-29T04:19:00;17.15;;;3.65;;
33902;SDS011;20194;50.950;5.346;2023-05-29T04:21:26;18.25;;;3.83;;
33902;SDS011;20194;50.950;5.346;2023-05-29T04:23:52;20.25;;;3.35;;
33902;SDS011;20194;50.950;5.346;2023-05-29T04:26:19;15.48;;;3.20;;
33902;SDS011;20194;50.950;5.346;2023-05-29T04:28:49;16.85;;;3.15;;
33902;SDS011;20194;50.950;5.346;2023-05-29T04:31:22;16.73;;;3.55;;
33902;SDS011;20194;50.950;5.346;2023-05-29T04:33:50;18.83;;;3.42;;
33902;SDS011;20194;50.950;5.346;2023-05-29T04:36:20;15.57;;;3.00;;
33902;SDS011;20194;50.950;5.346;2023-05-29T04:38:52;17.88;;;3.25;;
33902;SDS011;20194;50.950;5.346;2023-05-29T04:41:18;17.45;;;3.30;;
33902;SDS011;20194;50.950;5.346;2023-05-29T04:43:48;20.85;;;3.53;;
33902;SDS011;20194;50.950;5.346;2023-05-29T04:46:14;17.33;;;3.83;;
33902;SDS011;20194;50.950;5.346;2023-05-29T04:48:40;22.05;;;3.60;;
33902;SDS011;20194;50.950;5.346;2023-05-29T04:51:06;23.95;;;4.45;;
33902;SDS011;20194;50.950;5.346;2023-05-29T04:53:35;13.63;;;2.88;;
33902;SDS011;20194;50.950;5.346;2023-05-29T04:56:06;13.50;;;3.25;;
33902;SDS011;20194;50.950;5.346;2023-05-29T04:58:32;22.77;;;4.38;;
33902;SDS011;20194;50.950;5.346;2023-05-29T05:00:57;17.30;;;4.22;;
33902;SDS011;20194;50.950;5.346;2023-05-29T05:03:24;17.83;;;3.20;;
33902;SDS011;20194;50.950;5.346;2023-05-29T05:05:50;13.80;;;3.92;;
33902;SDS011;20194;50.950;5.346;2023-05-29T05:08:17;12.10;;;3.08;;
33902;SDS011;20194;50.950;5.346;2023-05-29T05:10:42;14.88;;;3.33;;
33902;SDS011;20194;50.950;5.346;2023-05-29T05:13:08;17.40;;;4.25;;
33902;SDS011;20194;50.950;5.346;2023-05-29T05:15:36;16.88;;;3.38;;
33902;SDS011;20194;50.950;5.346;2023-05-29T05:18:02;18.30;;;4.07;;
33902;SDS011;20194;50.950;5.346;2023-05-29T05:20:28;20.38;;;3.85;;
33902;SDS011;20194;50.950;5.346;2023-05-29T05:22:53;14.98;;;3.70;;
33902;SDS011;20194;50.950;5.346;2023-05-29T05:25:21;15.00;;;3.05;;
33902;SDS011;20194;50.950;5.346;2023-05-29T05:27:46;17.23;;;3.70;;
33902;SDS011;20194;50.950;5.346;2023-05-29T05:30:12;17.50;;;3.47;;
33902;SDS011;20194;50.950;5.346;2023-05-29T05:32:38;17.55;;;4.45;;
33902;SDS011;20194;50.950;5.346;2023-05-29T05:35:04;22.58;;;4.53;;
33902;SDS011;20194;50.950;5.346;2023-05-29T05:37:30;17.90;;;3.28;;
33902;SDS011;20194;50.950;5.346;2023-05-29T05:39:55;12.98;;;2.80;;
33902;SDS011;20194;50.950;5.346;2023-05-29T05:42:23;9.15;;;2.90;;
33902;SDS011;20194;50.950;5.346;2023-05-29T05:44:49;14.80;;;2.80;;
33902;SDS011;20194;50.950;5.346;2023-05-29T05:47:14;21.77;;;4.20;;
33902;SDS011;20194;50.950;5.346;2023-05-29T05:49:40;19.05;;;3.47;;
33902;SDS011;20194;50.950;5.346;2023-05-29T05:52:06;13.10;;;3.08;;
33902;SDS011;20194;50.950;5.346;2023-05-29T05:54:31;16.50;;;3.30;;
33902;SDS011;20194;50.950;5.346;2023-05-29T05:56:58;12.50;;;3.13;;
33902;SDS011;20194;50.950;5.346;2023-05-29T05:59:23;22.83;;;4.05;;
33902;SDS011;20194;50.950;5.346;2023-05-29T06:01:49;20.23;;;5.10;;
33902;SDS011;20194;50.950;5.346;2023-05-29T06:04:15;16.23;;;3.15;;
33902;SDS011;20194;50.950;5.346;2023-05-29T06:06:40;19.90;;;3.38;;
33902;SDS011;20194;50.950;5.346;2023-05-29T06:09:06;15.32;;;3.47;;
33902;SDS011;20194;50.950;5.346;2023-05-29T06:11:32;20.00;;;3.92;;
33902;SDS011;20194;50.950;5.346;2023-05-29T06:13:58;20.13;;;3.60;;
33902;SDS011;20194;50.950;5.346;2023-05-29T06:16:24;19.10;;;3.55;;
33902;SDS011;20194;50.950;5.346;2023-05-29T06:18:50;19.58;;;4.95;;
33902;SDS011;20194;50.950;5.346;2023-05-29T06:21:15;19.20;;;3.53;;
33902;SDS011;20194;50.950;5.346;2023-05-29T06:23:41;15.88;;;3.47;;
33902;SDS011;20194;50.950;5.346;2023-05-29T06:26:07;22.38;;;4.00;;
33902;SDS011;20194;50.950;5.346;2023-05-29T06:28:32;16.33;;;3.80;;
33902;SDS011;20194;50.950;5.346;2023-05-29T06:30:58;11.02;;;2.70;;
33902;SDS011;20194;50.950;5.346;2023-05-29T06:33:24;21.05;;;4.07;;
33902;SDS011;20194;50.950;5.346;2023-05-29T06:35:50;15.65;;;2.75;;
33902;SDS011;20194;50.950;5.346;2023-05-29T06:38:16;13.73;;;3.97;;
33902;SDS011;20194;50.950;5.346;2023-05-29T06:40:42;16.08;;;3.50;;
33902;SDS011;20194;50.950;5.346;2023-05-29T06:43:08;16.08;;;3.65;;
33902;SDS011;20194;50.950;5.346;2023-05-29T06:45:37;17.17;;;4.10;;
33902;SDS011;20194;50.950;5.346;2023-05-29T06:48:03;16.77;;;3.85;;
33902;SDS011;20194;50.950;5.346;2023-05-29T06:50:28;17.60;;;3.30;;
33902;SDS011;20194;50.950;5.346;2023-05-29T06:52:54;13.50;;;3.38;;
33902;SDS011;20194;50.950;5.346;2023-05-29T06:55:20;14.18;;;3.15;;
33902;SDS011;20194;50.950;5.346;2023-05-29T06:57:46;12.18;;;3.53;;
33902;SDS011;20194;50.950;5.346;2023-05-29T07:00:11;19.80;;;3.33;;
33902;SDS011;20194;50.950;5.346;2023-05-29T07:02:38;14.55;;;3.85;;
33902;SDS011;20194;50.950;5.346;2023-05-29T07:05:04;15.88;;;3.63;;
33902;SDS011;20194;50.950;5.346;2023-05-29T07:07:31;22.90;;;4.05;;
33902;SDS011;20194;50.950;5.346;2023-05-29T07:09:56;21.55;;;4.07;;
33902;SDS011;20194;50.950;5.346;2023-05-29T07:12:22;11.93;;;2.50;;
33902;SDS011;20194;50.950;5.346;2023-05-29T07:14:48;13.90;;;3.25;;
33902;SDS011;20194;50.950;5.346;2023-05-29T07:17:15;13.57;;;3.63;;
33902;SDS011;20194;50.950;5.346;2023-05-29T07:19:40;12.45;;;3.40;;
33902;SDS011;20194;50.950;5.346;2023-05-29T07:22:06;16.98;;;3.35;;
33902;SDS011;20194;50.950;5.346;2023-05-29T07:24:32;15.27;;;3.30;;
33902;SDS011;20194;50.950;5.346;2023-05-29T07:26:58;12.45;;;2.72;;
33902;SDS011;20194;50.950;5.346;2023-05-29T07:29:24;17.08;;;3.97;;
33902;SDS011;20194;50.950;5.346;2023-05-29T07:31:50;12.48;;;2.60;;
33902;SDS011;20194;50.950;5.346;2023-05-29T07:34:16;9.55;;;3.13;;
33902;SDS011;20194;50.950;5.346;2023-05-29T07:36:55;12.45;;;3.20;;
33902;SDS011;20194;50.950;5.346;2023-05-29T07:39:21;18.92;;;3.20;;
33902;SDS011;20194;50.950;5.346;2023-05-29T07:41:47;15.35;;;3.28;;
33902;SDS011;20194;50.950;5.346;2023-05-29T07:44:13;12.63;;;3.15;;
33902;SDS011;20194;50.950;5.346;2023-05-29T07:46:38;11.48;;;2.65;;
33902;SDS011;20194;50.950;5.346;2023-05-29T07:49:04;12.25;;;2.90;;
33902;SDS011;20194;50.950;5.346;2023-05-29T07:51:30;12.05;;;3.22;;
33902;SDS011;20194;50.950;5.346;2023-05-29T07:53:57;19.63;;;3.88;;
33902;SDS011;20194;50.950;5.346;2023-05-29T07:56:23;19.40;;;3.70;;
33902;SDS011;20194;50.950;5.346;2023-05-29T07:58:50;16.25;;;3.70;;
33902;SDS011;20194;50.950;5.346;2023-05-29T08:01:18;15.80;;;3.50;;
33902;SDS011;20194;50.950;5.346;2023-05-29T08:03:44;10.40;;;3.03;;
33902;SDS011;20194;50.950;5.346;2023-05-29T08:06:10;13.30;;;3.67;;
33902;SDS011;20194;50.950;5.346;2023-05-29T08:08:36;11.55;;;3.20;;
33902;SDS011;20194;50.950;5.346;2023-05-29T08:11:02;16.55;;;4.10;;
33902;SDS011;20194;50.950;5.346;2023-05-29T08:13:29;12.38;;;3.40;;
33902;SDS011;20194;50.950;5.346;2023-05-29T08:15:55;12.43;;;2.90;;
33902;SDS011;20194;50.950;5.346;2023-05-29T08:18:21;13.85;;;3.17;;
33902;SDS011;20194;50.950;5.346;2023-05-29T08:20:50;13.02;;;3.33;;
33902;SDS011;20194;50.950;5.346;2023-05-29T08:23:15;13.50;;;3.65;;
33902;SDS011;20194;50.950;5.346;2023-05-29T08:25:41;14.05;;;3.03;;
33902;SDS011;20194;50.950;5.346;2023-05-29T08:28:07;25.83;;;5.50;;
33902;SDS011;20194;50.950;5.346;2023-05-29T08:30:32;20.65;;;3.95;;
33902;SDS011;20194;50.950;5.346;2023-05-29T08:32:58;16.23;;;3.53;;
33902;SDS011;20194;50.950;5.346;2023-05-29T08:35:24;10.63;;;3.42;;
33902;SDS011;20194;50.950;5.346;2023-05-29T08:37:50;13.23;;;3.55;;
33902;SDS011;20194;50.950;5.346;2023-05-29T08:40:16;10.70;;;3.08;;
33902;SDS011;20194;50.950;5.346;2023-05-29T08:42:46;17.70;;;3.90;;
33902;SDS011;20194;50.950;5.346;2023-05-29T08:45:16;14.93;;;3.90;;
33902;SDS011;20194;50.950;5.346;2023-05-29T08:47:47;16.17;;;3.80;;
33902;SDS011;20194;50.950;5.346;2023-05-29T08:50:16;21.33;;;4.43;;
33902;SDS011;20194;50.950;5.346;2023-05-29T08:52:44;20.70;;;4.10;;
33902;SDS011;20194;50.950;5.346;2023-05-29T08:55:10;14.65;;;2.85;;
33902;SDS011;20194;50.950;5.346;2023-05-29T08:57:36;16.13;;;4.28;;
33902;SDS011;20194;50.950;5.346;2023-05-29T09:00:05;19.63;;;4.35;;
33902;SDS011;20194;50.950;5.346;2023-05-29T09:02:38;12.98;;;3.67;;
33902;SDS011;20194;50.950;5.346;2023-05-29T09:05:10;13.40;;;3.38;;
33902;SDS011;20194;50.950;5.346;2023-05-29T09:07:37;13.10;;;3.95;;
33902;SDS011;20194;50.950;5.346;2023-05-29T09:10:06;13.68;;;3.50;;
33902;SDS011;20194;50.950;5.346;2023-05-29T09:12:33;13.20;;;2.95;;
33902;SDS011;20194;50.950;5.346;2023-05-29T09:15:00;15.57;;;3.20;;
33902;SDS011;20194;50.950;5.346;2023-05-29T09:17:32;10.93;;;2.83;;
33902;SDS011;20194;50.950;5.346;2023-05-29T09:19:58;9.20;;;2.78;;
33902;SDS011;20194;50.950;5.346;2023-05-29T09:22:25;13.18;;;3.58;;
33902;SDS011;20194;50.950;5.346;2023-05-29T09:24:51;18.83;;;4.05;;
33902;SDS011;20194;50.950;5.346;2023-05-29T09:27:17;12.05;;;2.80;;
33902;SDS011;20194;50.950;5.346;2023-05-29T09:29:44;21.08;;;3.75;;
33902;SDS011;20194;50.950;5.346;2023-05-29T09:32:15;11.30;;;3.08;;
33902;SDS011;20194;50.950;5.346;2023-05-29T09:34:42;12.02;;;3.30;;
33902;SDS011;20194;50.950;5.346;2023-05-29T09:37:09;12.70;;;3.60;;
33902;SDS011;20194;50.950;5.346;2023-05-29T09:42:11;14.07;;;3.72;;
33902;SDS011;20194;50.950;5.346;2023-05-29T09:44:37;18.83;;;4.32;;
33902;SDS011;20194;50.950;5.346;2023-05-29T09:47:05;14.68;;;2.60;;
33902;SDS011;20194;50.950;5.346;2023-05-29T09:49:31;19.25;;;3.65;;
33902;SDS011;20194;50.950;5.346;2023-05-29T09:51:57;11.95;;;3.03;;
33902;SDS011;20194;50.950;5.346;2023-05-29T09:54:26;15.32;;;2.85;;
33902;SDS011;20194;50.950;5.346;2023-05-29T09:56:58;14.30;;;3.40;;
33902;SDS011;20194;50.950;5.346;2023-05-29T09:59:26;10.05;;;3.28;;
33902;SDS011;20194;50.950;5.346;2023-05-29T10:01:56;15.00;;;3.75;;
33902;SDS011;20194;50.950;5.346;2023-05-29T10:04:29;10.55;;;3.05;;
33902;SDS011;20194;50.950;5.346;2023-05-29T10:07:07;17.33;;;3.40;;
33902;SDS011;20194;50.950;5.346;2023-05-29T10:09:38;16.92;;;3.53;;
33902;SDS011;20194;50.950;5.346;2023-05-29T10:12:11;11.10;;;3.15;;
33902;SDS011;20194;50.950;5.346;2023-05-29T10:14:38;13.52;;;3.40;;
33902;SDS011;20194;50.950;5.346;2023-05-29T10:17:07;11.27;;;2.83;;
33902;SDS011;20194;50.950;5.346;2023-05-29T10:19:35;17.15;;;3.50;;
33902;SDS011;20194;50.950;5.346;2023-05-29T10:22:03;14.15;;;3.55;;
33902;SDS011;20194;50.950;5.346;2023-05-29T10:24:31;11.98;;;2.97;;
33902;SDS011;20194;50.950;5.346;2023-05-29T10:26:58;15.48;;;3.88;;
33902;SDS011;20194;50.950;5.346;2023-05-29T10:29:34;15.60;;;3.15;;
33902;SDS011;20194;50.950;5.346;2023-05-29T10:38:15;12.80;;;3.60;;
33902;SDS011;20194;50.950;5.346;2023-05-29T10:40:43;13.57;;;3.10;;
33902;SDS011;20194;50.950;5.346;2023-05-29T10:43:29;20.35;;;3.75;;
33902;SDS011;20194;50.950;5.346;2023-05-29T10:46:01;20.67;;;3.80;;
33902;SDS011;20194;50.950;5.346;2023-05-29T10:50:56;19.48;;;3.22;;
33902;SDS011;20194;50.950;5.346;2023-05-29T10:53:23;11.40;;;2.55;;
33902;SDS011;20194;50.950;5.346;2023-05-29T10:55:51;10.48;;;3.15;;
33902;SDS011;20194;50.950;5.346;2023-05-29T10:58:18;9.80;;;3.45;;
33902;SDS011;20194;50.950;5.346;2023-05-29T11:00:46;9.70;;;3.03;;
33902;SDS011;20194;50.950;5.346;2023-05-29T11:03:17;14.40;;;2.97;;
33902;SDS011;20194;50.950;5.346;2023-05-29T11:06:07;9.77;;;2.22;;
33902;SDS011;20194;50.950;5.346;2023-05-29T11:11:15;8.25;;;2.65;;
33902;SDS011;20194;50.950;5.346;2023-05-29T11:13:57;12.23;;;2.80;;
33902;SDS011;20194;50.950;5.346;2023-05-29T11:18:57;12.38;;;2.88;;
33902;SDS011;20194;50.950;5.346;2023-05-29T11:23:54;11.48;;;3.30;;
33902;SDS011;20194;50.950;5.346;2023-05-29T11:26:23;12.60;;;2.78;;
33902;SDS011;20194;50.950;5.346;2023-05-29T11:28:52;10.88;;;2.50;;
33902;SDS011;20194;50.950;5.346;2023-05-29T11:31:17;11.27;;;2.75;;
33902;SDS011;20194;50.950;5.346;2023-05-29T11:33:49;9.90;;;3.25;;
33902;SDS011;20194;50.950;5.346;2023-05-29T11:36:17;11.05;;;2.97;;
33902;SDS011;20194;50.950;5.346;2023-05-29T11:38:46;13.35;;;3.15;;
33902;SDS011;20194;50.950;5.346;2023-05-29T11:41:12;17.77;;;3.00;;
33902;SDS011;20194;50.950;5.346;2023-05-29T11:43:38;11.57;;;3.28;;
33902;SDS011;20194;50.950;5.346;2023-05-29T11:46:16;15.57;;;3.10;;
33902;SDS011;20194;50.950;5.346;2023-05-29T11:48:46;18.88;;;3.50;;
33902;SDS011;20194;50.950;5.346;2023-05-29T11:51:12;11.40;;;3.08;;
33902;SDS011;20194;50.950;5.346;2023-05-29T11:53:41;12.07;;;3.10;;
33902;SDS011;20194;50.950;5.346;2023-05-29T11:56:12;6.35;;;2.45;;
33902;SDS011;20194;50.950;5.346;2023-05-29T11:58:38;10.82;;;3.22;;
33902;SDS011;20194;50.950;5.346;2023-05-29T12:01:07;12.30;;;3.53;;
33902;SDS011;20194;50.950;5.346;2023-05-29T12:03:37;11.50;;;3.03;;
33902;SDS011;20194;50.950;5.346;2023-05-29T12:06:07;8.60;;;2.50;;
33902;SDS011;20194;50.950;5.346;2023-05-29T12:08:35;11.73;;;2.55;;
33902;SDS011;20194;50.950;5.346;2023-05-29T12:11:02;9.32;;;2.95;;
33902;SDS011;20194;50.950;5.346;2023-05-29T12:13:28;7.57;;;3.03;;
33902;SDS011;20194;50.950;5.346;2023-05-29T12:15:55;17.65;;;3.80;;
33902;SDS011;20194;50.950;5.346;2023-05-29T12:18:23;11.52;;;3.13;;
33902;SDS011;20194;50.950;5.346;2023-05-29T12:20:49;8.82;;;2.97;;
33902;SDS011;20194;50.950;5.346;2023-05-29T12:23:16;10.18;;;3.50;;
33902;SDS011;20194;50.950;5.346;2023-05-29T12:25:45;9.23;;;2.85;;
33902;SDS011;20194;50.950;5.346;2023-05-29T12:28:15;8.52;;;2.75;;
33902;SDS011;20194;50.950;5.346;2023-05-29T12:30:42;13.70;;;3.58;;
33902;SDS011;20194;50.950;5.346;2023-05-29T12:33:08;10.30;;;3.13;;
33902;SDS011;20194;50.950;5.346;2023-05-29T12:35:35;16.98;;;2.92;;
33902;SDS011;20194;50.950;5.346;2023-05-29T12:38:01;11.73;;;2.92;;
33902;SDS011;20194;50.950;5.346;2023-05-29T12:40:30;14.20;;;3.42;;
33902;SDS011;20194;50.950;5.346;2023-05-29T12:43:05;10.07;;;3.00;;
33902;SDS011;20194;50.950;5.346;2023-05-29T12:45:34;9.68;;;2.85;;
33902;SDS011;20194;50.950;5.346;2023-05-29T12:48:00;9.38;;;2.50;;
33902;SDS011;20194;50.950;5.346;2023-05-29T12:50:48;8.27;;;2.92;;
33902;SDS011;20194;50.950;5.346;2023-05-29T12:53:15;12.25;;;3.03;;
33902;SDS011;20194;50.950;5.346;2023-05-29T12:55:41;13.65;;;2.80;;
33902;SDS011;20194;50.950;5.346;2023-05-29T12:58:12;11.32;;;3.10;;
33902;SDS011;20194;50.950;5.346;2023-05-29T13:00:39;12.35;;;2.78;;
33902;SDS011;20194;50.950;5.346;2023-05-29T13:03:06;15.32;;;3.00;;
33902;SDS011;20194;50.950;5.346;2023-05-29T13:05:32;13.63;;;2.88;;
33902;SDS011;20194;50.950;5.346;2023-05-29T13:07:58;9.73;;;2.45;;
33902;SDS011;20194;50.950;5.346;2023-05-29T13:10:25;13.35;;;3.58;;
33902;SDS011;20194;50.950;5.346;2023-05-29T13:12:53;9.93;;;2.92;;
33902;SDS011;20194;50.950;5.346;2023-05-29T13:15:21;11.75;;;3.22;;
33902;SDS011;20194;50.950;5.346;2023-05-29T13:17:47;8.82;;;2.20;;
33902;SDS011;20194;50.950;5.346;2023-05-29T13:20:14;19.52;;;3.25;;
33902;SDS011;20194;50.950;5.346;2023-05-29T13:22:40;12.10;;;3.53;;
33902;SDS011;20194;50.950;5.346;2023-05-29T13:25:07;7.57;;;2.72;;
33902;SDS011;20194;50.950;5.346;2023-05-29T13:27:34;9.38;;;2.97;;
33902;SDS011;20194;50.950;5.346;2023-05-29T13:30:02;9.00;;;2.45;;
33902;SDS011;20194;50.950;5.346;2023-05-29T13:32:29;34.95;;;3.25;;
33902;SDS011;20194;50.950;5.346;2023-05-29T13:34:55;9.32;;;3.13;;
33902;SDS011;20194;50.950;5.346;2023-05-29T13:37:21;14.27;;;3.13;;
33902;SDS011;20194;50.950;5.346;2023-05-29T13:39:46;9.82;;;2.88;;
33902;SDS011;20194;50.950;5.346;2023-05-29T13:42:12;11.60;;;3.28;;
33902;SDS011;20194;50.950;5.346;2023-05-29T13:44:38;10.05;;;2.88;;
33902;SDS011;20194;50.950;5.346;2023-05-29T13:47:05;7.57;;;2.40;;
33902;SDS011;20194;50.950;5.346;2023-05-29T13:49:32;9.63;;;2.40;;
33902;SDS011;20194;50.950;5.346;2023-05-29T13:51:58;10.18;;;3.08;;
33902;SDS011;20194;50.950;5.346;2023-05-29T13:54:23;10.77;;;2.75;;
33902;SDS011;20194;50.950;5.346;2023-05-29T13:56:50;9.73;;;2.55;;
33902;SDS011;20194;50.950;5.346;2023-05-29T13:59:16;12.85;;;3.25;;
33902;SDS011;20194;50.950;5.346;2023-05-29T14:01:41;13.48;;;3.13;;
33902;SDS011;20194;50.950;5.346;2023-05-29T14:04:07;9.93;;;2.90;;
33902;SDS011;20194;50.950;5.346;2023-05-29T14:06:33;13.98;;;3.30;;
33902;SDS011;20194;50.950;5.346;2023-05-29T14:08:58;14.50;;;3.85;;
33902;SDS011;20194;50.950;5.346;2023-05-29T14:11:24;9.10;;;2.65;;
33902;SDS011;20194;50.950;5.346;2023-05-29T14:13:51;10.25;;;3.25;;
33902;SDS011;20194;50.950;5.346;2023-05-29T14:16:17;9.65;;;3.13;;
33902;SDS011;20194;50.950;5.346;2023-05-29T14:18:43;10.45;;;3.28;;
33902;SDS011;20194;50.950;5.346;2023-05-29T14:21:09;11.68;;;3.58;;
33902;SDS011;20194;50.950;5.346;2023-05-29T14:23:35;9.15;;;2.40;;
33902;SDS011;20194;50.950;5.346;2023-05-29T14:26:02;8.07;;;2.80;;
33902;SDS011;20194;50.950;5.346;2023-05-29T14:28:27;11.80;;;3.15;;
33902;SDS011;20194;50.950;5.346;2023-05-29T14:30:53;11.35;;;2.95;;
33902;SDS011;20194;50.950;5.346;2023-05-29T14:33:19;13.77;;;3.35;;
33902;SDS011;20194;50.950;5.346;2023-05-29T14:35:45;8.35;;;2.42;;
33902;SDS011;20194;50.950;5.346;2023-05-29T14:38:11;10.30;;;2.63;;
33902;SDS011;20194;50.950;5.346;2023-05-29T14:40:37;8.35;;;2.67;;
33902;SDS011;20194;50.950;5.346;2023-05-29T14:43:03;9.77;;;3.17;;
33902;SDS011;20194;50.950;5.346;2023-05-29T14:45:29;7.72;;;3.08;;
33902;SDS011;20194;50.950;5.346;2023-05-29T14:47:55;8.57;;;3.10;;
33902;SDS011;20194;50.950;5.346;2023-05-29T14:50:21;9.80;;;2.83;;
33902;SDS011;20194;50.950;5.346;2023-05-29T14:52:46;12.68;;;3.17;;
33902;SDS011;20194;50.950;5.346;2023-05-29T14:55:15;16.48;;;3.20;;
33902;SDS011;20194;50.950;5.346;2023-05-29T14:57:41;6.72;;;2.58;;
33902;SDS011;20194;50.950;5.346;2023-05-29T15:00:06;11.88;;;3.28;;
33902;SDS011;20194;50.950;5.346;2023-05-29T15:02:33;11.25;;;2.88;;
33902;SDS011;20194;50.950;5.346;2023-05-29T15:04:58;9.05;;;2.80;;